Time;durP1;ratioP1;P1;durP2;ratioP2;P2;SDS_P1;SDS_P2;PMS_P1;PMS_P2;Temp;Humidity;BMP_temperature;BMP_pressure;BME280_temperature;BME280_humidity;BME280_pressure;Samples;Min_cycle;Max_cycle;Signal;HPM_P1;HPM_P2
2023/03/19 00:01:58;;;;;;;2.75;1.38;;;22.50;51.20;;;;;;5072996;28;20204;-62
2023/03/19 00:04:29;;;;;;;3.20;1.60;;;22.50;51.20;;;;;;5072701;28;20202;-62
2023/03/19 00:07:02;;;;;;;3.40;1.25;;;22.60;51.30;;;;;;5072277;28;20211;-62
2023/03/19 00:09:33;;;;;;;4.72;1.38;;;22.60;51.30;;;;;;5071927;28;20207;-62
2023/03/19 00:12:03;;;;;;;3.70;1.17;;;22.60;51.30;;;;;;5071716;28;20195;-62
2023/03/19 00:14:34;;;;;;;2.83;1.48;;;22.70;51.20;;;;;;5072039;28;20195;-58
2023/03/19 00:17:05;;;;;;;4.05;1.48;;;22.70;51.20;;;;;;5072581;28;20223;-62
2023/03/19 00:19:35;;;;;;;4.40;1.30;;;22.70;51.10;;;;;;5071752;28;20858;-62
2023/03/19 00:22:08;;;;;;;3.03;1.40;;;22.80;51.20;;;;;;5072350;28;20202;-62
2023/03/19 00:24:39;;;;;;;2.95;1.25;;;22.70;51.10;;;;;;5071808;28;20199;-61
2023/03/19 00:27:09;;;;;;;4.45;1.70;;;22.80;51.10;;;;;;5071988;28;20698;-62
2023/03/19 00:29:40;;;;;;;3.60;1.38;;;22.80;51.10;;;;;;5072067;28;20198;-62
2023/03/19 00:32:11;;;;;;;2.67;1.05;;;22.90;51.10;;;;;;5072099;28;20574;-62
2023/03/19 00:34:42;;;;;;;2.70;1.25;;;22.90;51.00;;;;;;5071336;28;20198;-61
2023/03/19 00:37:15;;;;;;;2.63;1.13;;;22.90;51.00;;;;;;5070913;28;20549;-62
2023/03/19 00:39:46;;;;;;;3.38;1.20;;;22.90;51.00;;;;;;5071259;28;20743;-62
2023/03/19 00:42:17;;;;;;;3.45;1.40;;;23.00;51.00;;;;;;5071657;28;20236;-61
2023/03/19 00:44:47;;;;;;;4.78;1.23;;;23.00;51.00;;;;;;5072096;28;20558;-62
2023/03/19 00:47:18;;;;;;;4.60;1.50;;;23.00;51.00;;;;;;5071979;28;20554;-62
2023/03/19 00:49:49;;;;;;;3.10;1.15;;;23.00;50.90;;;;;;5072619;28;20222;-61
2023/03/19 00:52:21;;;;;;;3.42;1.33;;;23.10;51.00;;;;;;5071874;28;20201;-61
2023/03/19 00:54:52;;;;;;;3.20;1.00;;;23.10;50.90;;;;;;5071375;28;20198;-61
2023/03/19 00:57:23;;;;;;;2.75;1.23;;;23.10;50.90;;;;;;5071760;28;20230;-62
2023/03/19 00:59:53;;;;;;;2.03;1.02;;;23.10;50.80;;;;;;5071454;28;20697;-62
2023/03/19 01:02:24;;;;;;;2.30;0.98;;;23.20;50.90;;;;;;5071402;28;20681;-62
2023/03/19 01:04:55;;;;;;;2.95;1.15;;;23.10;50.80;;;;;;5070987;28;20203;-62
2023/03/19 01:07:27;;;;;;;3.33;1.30;;;23.20;50.80;;;;;;5070890;28;20219;-62
2023/03/19 01:09:58;;;;;;;1.90;1.02;;;23.20;50.80;;;;;;5070238;28;20198;-62
2023/03/19 01:12:28;;;;;;;2.65;1.17;;;23.30;50.70;;;;;;5071036;28;20201;-61
2023/03/19 01:14:59;;;;;;;3.40;1.10;;;23.30;50.70;;;;;;5070842;28;20199;-62
2023/03/19 01:17:30;;;;;;;2.95;0.98;;;23.30;50.70;;;;;;5071061;28;20214;-61
2023/03/19 01:20:00;;;;;;;2.10;0.93;;;23.30;50.70;;;;;;5070753;28;20223;-63
2023/03/19 01:22:33;;;;;;;2.67;1.20;;;23.40;50.70;;;;;;5071201;28;20203;-60
2023/03/19 01:25:04;;;;;;;5.40;1.27;;;23.40;50.70;;;;;;5071222;28;20195;-59
2023/03/19 01:27:35;;;;;;;2.95;1.40;;;23.40;50.70;;;;;;5071405;28;20219;-62
2023/03/19 01:30:06;;;;;;;3.38;1.10;;;23.40;50.70;;;;;;5071395;28;20202;-61
2023/03/19 01:32:37;;;;;;;1.85;0.93;;;23.40;50.70;;;;;;5070720;28;20195;-62
2023/03/19 01:35:08;;;;;;;4.07;1.15;;;23.50;50.80;;;;;;5070965;28;20658;-61
2023/03/19 01:37:41;;;;;;;3.13;1.10;;;23.50;50.80;;;;;;5070970;28;20767;-60
2023/03/19 01:40:14;;;;;;;1.48;0.90;;;23.50;50.80;;;;;;5070620;28;20238;-62
2023/03/19 01:42:59;;;;;;;3.28;1.10;;;23.50;50.80;;;;;;5071032;28;20198;-61
2023/03/19 01:45:35;;;;;;;3.17;1.30;;;23.50;50.80;;;;;;5070843;28;20203;-61
2023/03/19 01:48:07;;;;;;;2.95;1.13;;;23.60;50.80;;;;;;5070731;28;20202;-61
2023/03/19 01:50:43;;;;;;;2.40;0.90;;;23.50;50.70;;;;;;5071569;28;20276;-61
2023/03/19 01:53:17;;;;;;;3.40;1.30;;;23.60;50.70;;;;;;5068976;28;20225;-61
2023/03/19 01:55:49;;;;;;;3.28;1.00;;;23.60;50.70;;;;;;5070689;28;20215;-62
2023/03/19 01:58:20;;;;;;;2.10;0.95;;;23.70;50.70;;;;;;5071019;28;20201;-61
2023/03/19 02:00:51;;;;;;;2.10;1.08;;;23.70;50.70;;;;;;5071230;28;20214;-62
2023/03/19 02:03:21;;;;;;;3.75;1.25;;;23.70;50.60;;;;;;5070909;28;20202;-61
2023/03/19 02:05:54;;;;;;;3.40;1.27;;;23.70;50.60;;;;;;5069933;28;20219;-61
2023/03/19 02:08:28;;;;;;;4.15;1.40;;;23.70;50.60;;;;;;5074656;28;20779;-58
2023/03/19 02:11:00;;;;;;;3.17;1.02;;;23.80;50.70;;;;;;5074730;28;20206;-61
2023/03/19 02:13:31;;;;;;;1.75;0.90;;;23.80;50.70;;;;;;5074730;28;20190;-61
2023/03/19 02:16:02;;;;;;;2.40;0.98;;;23.80;50.70;;;;;;5074654;28;20221;-61
2023/03/19 02:18:33;;;;;;;2.58;0.90;;;23.80;50.60;;;;;;5074699;28;20237;-61
2023/03/19 02:21:07;;;;;;;2.38;1.13;;;23.90;50.60;;;;;;5074423;28;20229;-61
2023/03/19 02:23:47;;;;;;;4.07;1.25;;;23.90;50.50;;;;;;5074561;28;20194;-62
2023/03/19 02:26:22;;;;;;;3.05;0.90;;;23.90;50.50;;;;;;5074059;28;20221;-62
2023/03/19 02:28:54;;;;;;;2.53;1.08;;;24.00;50.50;;;;;;5074371;28;20284;-61
2023/03/19 02:31:25;;;;;;;3.42;1.10;;;24.00;50.40;;;;;;5073784;28;20195;-62
2023/03/19 02:34:04;;;;;;;2.17;1.00;;;24.00;50.40;;;;;;5074271;28;20203;-62
2023/03/19 02:36:38;;;;;;;2.90;0.95;;;24.00;50.30;;;;;;5074463;28;20237;-62
2023/03/19 02:39:14;;;;;;;3.00;1.10;;;24.00;50.30;;;;;;5074147;28;20624;-60
2023/03/19 02:41:48;;;;;;;2.35;1.05;;;24.10;50.40;;;;;;5074089;28;20269;-60
2023/03/19 02:44:19;;;;;;;2.38;1.13;;;24.10;50.30;;;;;;5072673;28;20676;-59
2023/03/19 02:46:50;;;;;;;2.28;0.98;;;24.10;50.30;;;;;;5072758;28;20268;-62
2023/03/19 02:49:21;;;;;;;3.38;1.30;;;24.10;50.30;;;;;;5073627;28;20642;-62
2023/03/19 02:51:52;;;;;;;3.13;1.10;;;24.20;50.30;;;;;;5073757;28;20606;-60
2023/03/19 02:54:26;;;;;;;4.18;1.27;;;24.20;50.30;;;;;;5073990;28;20191;-61
2023/03/19 02:56:58;;;;;;;2.45;1.02;;;24.20;50.20;;;;;;5073876;28;20214;-61
2023/03/19 02:59:29;;;;;;;2.22;0.85;;;24.20;50.20;;;;;;5074153;28;20260;-61
2023/03/19 03:02:00;;;;;;;2.70;1.10;;;24.20;50.10;;;;;;5073682;28;20214;-60
2023/03/19 03:04:30;;;;;;;2.78;1.00;;;24.30;50.10;;;;;;5053313;28;20215;-61
2023/03/19 03:07:01;;;;;;;2.42;1.10;;;24.30;50.10;;;;;;5068392;28;20701;-60
2023/03/19 03:09:32;;;;;;;3.28;1.30;;;24.30;50.00;;;;;;5073460;28;20240;-61
2023/03/19 03:12:04;;;;;;;3.13;1.20;;;24.30;50.00;;;;;;5072629;28;20199;-58
2023/03/19 03:14:36;;;;;;;4.78;1.23;;;24.30;50.00;;;;;;5072689;28;20198;-61
2023/03/19 03:17:07;;;;;;;3.88;1.30;;;24.40;50.00;;;;;;5088083;28;20634;-61
2023/03/19 03:19:37;;;;;;;2.85;1.20;;;24.40;50.00;;;;;;5083112;28;20256;-59
2023/03/19 03:22:08;;;;;;;3.38;1.15;;;24.50;50.10;;;;;;5073420;28;20226;-60
2023/03/19 03:24:40;;;;;;;4.38;1.38;;;24.50;50.00;;;;;;5073129;28;20199;-62
2023/03/19 03:27:13;;;;;;;5.45;1.70;;;24.50;50.00;;;;;;5073251;28;20686;-61
2023/03/19 03:29:44;;;;;;;4.05;1.20;;;24.50;49.90;;;;;;5073503;28;20195;-61
2023/03/19 03:32:14;;;;;;;2.78;1.02;;;24.50;49.80;;;;;;5073208;28;20187;-61
2023/03/19 03:34:46;;;;;;;3.53;1.50;;;24.60;49.80;;;;;;5073259;28;20690;-60
2023/03/19 03:37:17;;;;;;;4.90;1.38;;;24.60;49.90;;;;;;5072951;28;20268;-62
2023/03/19 03:39:47;;;;;;;2.25;1.10;;;24.70;49.90;;;;;;5072780;28;20278;-61
2023/03/19 03:42:20;;;;;;;3.75;1.20;;;24.70;49.90;;;;;;5072828;28;20222;-62
2023/03/19 03:44:51;;;;;;;4.15;1.20;;;24.70;49.90;;;;;;5072732;28;20199;-61
2023/03/19 03:47:21;;;;;;;5.43;1.60;;;24.70;49.80;;;;;;5071670;28;20740;-61
2023/03/19 03:49:52;;;;;;;2.17;1.10;;;24.70;49.80;;;;;;5073203;28;20202;-61
2023/03/19 03:52:23;;;;;;;3.58;1.13;;;24.80;49.80;;;;;;5072926;28;20199;-60
2023/03/19 03:54:53;;;;;;;3.08;1.33;;;24.80;49.80;;;;;;5072735;28;20634;-61
2023/03/19 03:57:26;;;;;;;2.67;1.15;;;24.80;49.80;;;;;;5072494;28;20571;-61
2023/03/19 03:59:57;;;;;;;3.95;1.25;;;24.80;49.70;;;;;;5071399;28;20240;-61
2023/03/19 04:02:28;;;;;;;3.58;1.20;;;24.90;49.80;;;;;;5067334;28;20223;-61
2023/03/19 04:04:59;;;;;;;5.00;1.35;;;24.90;49.70;;;;;;5072054;28;20207;-61
2023/03/19 04:07:30;;;;;;;4.53;1.85;;;24.90;49.70;;;;;;5072227;28;20214;-61
2023/03/19 04:10:00;;;;;;;3.35;1.30;;;25.00;49.60;;;;;;5071397;28;20669;-60
2023/03/19 04:12:34;;;;;;;3.70;1.63;;;25.00;49.60;;;;;;5071573;28;20548;-60
2023/03/19 04:15:04;;;;;;;6.28;1.63;;;25.00;49.50;;;;;;5072139;28;20268;-61
2023/03/19 04:17:35;;;;;;;3.85;1.38;;;25.10;49.50;;;;;;5071444;28;20596;-61
2023/03/19 04:20:07;;;;;;;4.68;1.25;;;25.10;49.50;;;;;;5072388;28;20284;-61
2023/03/19 04:22:37;;;;;;;2.72;1.25;;;25.10;49.40;;;;;;5072168;28;20245;-61
2023/03/19 04:25:09;;;;;;;4.00;1.70;;;25.10;49.40;;;;;;5071971;28;20209;-61
2023/03/19 04:27:41;;;;;;;3.08;1.40;;;25.10;49.40;;;;;;5072082;28;20225;-61
2023/03/19 04:30:13;;;;;;;3.90;1.38;;;25.20;49.50;;;;;;5071619;28;20728;-62
2023/03/19 04:32:45;;;;;;;3.55;1.40;;;25.10;49.50;;;;;;5072018;28;20202;-60
2023/03/19 04:35:17;;;;;;;3.58;1.27;;;25.20;49.50;;;;;;5071459;28;20191;-60
2023/03/19 04:37:47;;;;;;;3.08;1.38;;;25.20;49.50;;;;;;5071586;28;20211;-61
2023/03/19 04:40:18;;;;;;;5.00;1.50;;;25.20;49.50;;;;;;5071754;28;20210;-61
2023/03/19 04:42:51;;;;;;;4.65;1.60;;;25.30;49.50;;;;;;5071801;28;20222;-62
2023/03/19 04:45:21;;;;;;;5.05;1.83;;;25.30;49.50;;;;;;5071801;28;20659;-60
2023/03/19 04:47:52;;;;;;;3.20;1.50;;;25.30;49.50;;;;;;5071956;28;20191;-61
2023/03/19 04:50:23;;;;;;;7.05;2.25;;;25.30;49.40;;;;;;5071940;28;20198;-53
2023/03/19 04:52:54;;;;;;;6.45;2.03;;;25.30;49.40;;;;;;5071178;28;20309;-61
2023/03/19 04:55:25;;;;;;;5.45;1.83;;;25.30;49.80;;;;;;5070972;28;20666;-61
2023/03/19 04:57:57;;;;;;;7.10;2.20;;;25.30;50.10;;;;;;5071661;28;20283;-61
2023/03/19 05:00:29;;;;;;;6.30;1.70;;;25.30;50.20;;;;;;5071462;28;20218;-61
2023/03/19 05:03:00;;;;;;;7.43;2.40;;;25.20;50.10;;;;;;5071181;28;20225;-61
2023/03/19 05:05:30;;;;;;;8.13;2.17;;;25.30;50.20;;;;;;5071135;28;20340;-61
2023/03/19 05:08:02;;;;;;;5.18;1.75;;;25.30;50.30;;;;;;5071276;28;20681;-61
2023/03/19 05:10:35;;;;;;;6.80;2.05;;;25.30;50.30;;;;;;5070757;28;20195;-62
2023/03/19 05:13:08;;;;;;;5.68;1.75;;;25.30;50.30;;;;;;5071078;28;20191;-62
2023/03/19 05:15:38;;;;;;;9.50;2.45;;;25.30;50.30;;;;;;5070894;28;20195;-61
2023/03/19 05:18:09;;;;;;;5.20;1.98;;;25.30;50.30;;;;;;5070877;28;20202;-60
2023/03/19 05:20:41;;;;;;;5.00;1.98;;;25.40;50.40;;;;;;5070825;28;20195;-62
2023/03/19 05:23:12;;;;;;;6.35;1.88;;;25.40;50.40;;;;;;5071024;28;20215;-61
2023/03/19 05:25:43;;;;;;;3.67;1.73;;;25.40;50.30;;;;;;5070875;28;20231;-60
2023/03/19 05:28:15;;;;;;;7.10;2.03;;;25.40;50.30;;;;;;5068846;28;20253;-60
2023/03/19 05:30:46;;;;;;;5.20;1.58;;;25.50;50.40;;;;;;5071206;28;20199;-61
2023/03/19 05:33:16;;;;;;;6.15;2.15;;;25.50;50.30;;;;;;5070965;28;20191;-58
2023/03/19 05:35:47;;;;;;;3.30;1.65;;;25.50;50.20;;;;;;5070037;28;20211;-61
2023/03/19 05:38:18;;;;;;;6.55;2.10;;;25.60;50.30;;;;;;5070468;28;20663;-61
2023/03/19 05:40:49;;;;;;;4.15;1.60;;;25.60;50.30;;;;;;5070937;28;20194;-62
2023/03/19 05:43:21;;;;;;;3.75;1.50;;;25.60;50.20;;;;;;5071271;28;20202;-61
2023/03/19 05:45:54;;;;;;;3.15;1.58;;;25.60;50.20;;;;;;5070416;28;20222;-61
2023/03/19 05:48:24;;;;;;;3.63;1.60;;;25.60;50.10;;;;;;5074329;28;20564;-62
2023/03/19 05:50:55;;;;;;;2.80;1.30;;;25.60;50.10;;;;;;5091704;28;20193;-61
2023/03/19 05:53:26;;;;;;;5.22;1.88;;;25.60;50.10;;;;;;5091762;28;20220;-61
2023/03/19 05:55:56;;;;;;;5.55;1.90;;;25.60;50.00;;;;;;5088269;28;20247;-61
2023/03/19 05:58:29;;;;;;;4.18;1.45;;;25.70;50.20;;;;;;5070617;28;20199;-61
2023/03/19 06:01:00;;;;;;;5.22;1.67;;;25.60;50.00;;;;;;5070176;28;20218;-62
2023/03/19 06:03:31;;;;;;;4.43;1.42;;;25.60;50.00;;;;;;5070598;28;20195;-61
2023/03/19 06:06:02;;;;;;;2.80;1.30;;;25.70;50.00;;;;;;5070704;28;20210;-60
2023/03/19 06:08:32;;;;;;;4.18;1.40;;;25.60;49.90;;;;;;5070280;28;20198;-61
2023/03/19 06:11:03;;;;;;;3.65;1.50;;;25.70;49.90;;;;;;5070016;28;20543;-61
2023/03/19 06:13:36;;;;;;;2.97;1.40;;;25.70;50.60;;;;;;5070551;28;20195;-60
2023/03/19 06:16:08;;;;;;;4.07;1.70;;;25.70;49.90;;;;;;5070084;28;20280;-61
2023/03/19 06:18:38;;;;;;;4.00;1.50;;;25.70;49.90;;;;;;5070284;28;20369;-61
2023/03/19 06:21:09;;;;;;;3.78;1.50;;;25.70;49.80;;;;;;5070232;28;20535;-61
2023/03/19 06:23:40;;;;;;;2.85;1.63;;;25.70;49.80;;;;;;5070004;28;20206;-61
2023/03/19 06:26:10;;;;;;;3.20;1.58;;;25.70;49.70;;;;;;5069657;28;20218;-61
2023/03/19 06:28:43;;;;;;;4.68;1.90;;;25.60;49.60;;;;;;5070607;28;20654;-61
2023/03/19 06:31:14;;;;;;;4.35;1.67;;;25.60;49.60;;;;;;5070695;28;20202;-62
2023/03/19 06:33:44;;;;;;;4.05;1.48;;;25.60;49.60;;;;;;5070369;28;20191;-61
2023/03/19 06:36:15;;;;;;;4.10;1.50;;;25.60;49.60;;;;;;5070487;28;20219;-60
2023/03/19 06:38:46;;;;;;;3.00;1.40;;;25.60;49.60;;;;;;5070662;28;20202;-61
2023/03/19 06:41:16;;;;;;;3.47;1.75;;;25.60;49.60;;;;;;5070467;28;20198;-61
2023/03/19 06:43:49;;;;;;;3.00;1.35;;;25.60;49.60;;;;;;5070594;28;20191;-61
2023/03/19 06:46:20;;;;;;;2.92;1.67;;;25.60;49.60;;;;;;5070743;28;20230;-61
2023/03/19 06:48:50;;;;;;;3.90;1.45;;;25.60;49.60;;;;;;5070187;28;20678;-60
2023/03/19 06:51:21;;;;;;;4.00;1.33;;;25.60;49.60;;;;;;5070284;28;20574;-61
2023/03/19 06:53:52;;;;;;;3.80;1.50;;;25.50;49.50;;;;;;5073331;28;20229;-61
2023/03/19 06:56:22;;;;;;;3.58;1.35;;;25.60;49.50;;;;;;5073663;28;20222;-62
2023/03/19 06:58:55;;;;;;;3.83;1.45;;;25.50;49.40;;;;;;5073761;28;20195;-61
2023/03/19 07:01:26;;;;;;;2.05;1.23;;;25.50;49.40;;;;;;5073483;28;21013;-62
2023/03/19 07:03:57;;;;;;;3.10;1.50;;;25.50;49.40;;;;;;5073505;28;20207;-62
2023/03/19 07:06:28;;;;;;;2.60;1.50;;;25.50;50.00;;;;;;5073599;28;20272;-61
2023/03/19 07:08:59;;;;;;;3.50;1.55;;;25.40;49.30;;;;;;5073634;28;20224;-62
2023/03/19 07:11:33;;;;;;;3.50;1.85;;;25.40;49.30;;;;;;5073656;28;20663;-61
2023/03/19 07:14:06;;;;;;;3.97;1.60;;;25.40;49.30;;;;;;5073642;28;20202;-61
2023/03/19 07:16:38;;;;;;;4.57;1.70;;;25.40;49.90;;;;;;5073185;28;20589;-62
2023/03/19 07:19:08;;;;;;;3.25;1.70;;;25.40;49.40;;;;;;5073140;28;20194;-62
2023/03/19 07:21:39;;;;;;;4.35;1.67;;;25.30;49.30;;;;;;5073153;28;20195;-61
2023/03/19 07:24:10;;;;;;;2.42;1.48;;;25.30;49.30;;;;;;5073392;28;20785;-61
2023/03/19 07:26:41;;;;;;;3.20;1.50;;;25.30;49.40;;;;;;5072993;28;20226;-61
2023/03/19 07:29:13;;;;;;;2.08;1.30;;;25.30;49.40;;;;;;5073191;28;20197;-61
2023/03/19 07:31:44;;;;;;;3.50;1.63;;;25.30;49.40;;;;;;5072926;28;20190;-61
2023/03/19 07:34:15;;;;;;;3.15;1.40;;;25.20;49.30;;;;;;5072730;28;20195;-62
2023/03/19 07:36:46;;;;;;;2.47;1.23;;;25.20;49.30;;;;;;5072330;28;20218;-62
2023/03/19 07:39:16;;;;;;;3.60;1.38;;;25.20;49.30;;;;;;5072271;28;20272;-62
2023/03/19 07:41:48;;;;;;;3.47;1.50;;;25.20;49.30;;;;;;5072554;28;20202;-62
2023/03/19 07:44:20;;;;;;;3.05;1.60;;;25.20;49.40;;;;;;5072681;28;20282;-62
2023/03/19 07:46:51;;;;;;;2.60;1.27;;;25.20;49.30;;;;;;5072596;28;20215;-62
2023/03/19 07:49:22;;;;;;;3.00;1.35;;;25.10;49.30;;;;;;5072774;28;20557;-61
2023/03/19 07:51:52;;;;;;;2.55;1.30;;;25.10;49.30;;;;;;5073234;28;20194;-61
2023/03/19 07:54:23;;;;;;;2.92;1.58;;;25.10;49.30;;;;;;5072414;28;20199;-61
2023/03/19 07:56:54;;;;;;;3.30;1.20;;;25.10;49.30;;;;;;5072656;28;20219;-62
2023/03/19 07:59:26;;;;;;;3.30;1.40;;;25.00;49.30;;;;;;5072432;28;20187;-62
2023/03/19 08:01:57;;;;;;;2.10;1.02;;;25.00;49.30;;;;;;5072533;28;20191;-61
2023/03/19 08:04:28;;;;;;;3.25;1.58;;;25.00;49.40;;;;;;5071472;28;20226;-62
2023/03/19 08:06:59;;;;;;;3.25;1.48;;;25.00;49.40;;;;;;5072835;28;20218;-62
2023/03/19 08:09:30;;;;;;;3.05;1.40;;;25.00;49.40;;;;;;5072688;28;20207;-62
2023/03/19 08:12:00;;;;;;;2.17;1.20;;;25.00;49.40;;;;;;5072107;28;20195;-60
2023/03/19 08:14:33;;;;;;;2.25;1.33;;;24.90;49.40;;;;;;5071873;28;20194;-60
2023/03/19 08:17:04;;;;;;;2.70;1.83;;;24.90;49.30;;;;;;5071703;28;20229;-60
2023/03/19 08:19:34;;;;;;;2.72;1.50;;;24.90;49.40;;;;;;5068833;28;20190;-59
2023/03/19 08:22:05;;;;;;;1.75;1.15;;;24.90;49.40;;;;;;5064723;28;20259;-58
2023/03/19 08:24:36;;;;;;;3.38;1.58;;;24.80;49.40;;;;;;5071976;28;20187;-61
2023/03/19 08:27:06;;;;;;;2.58;1.40;;;24.90;49.50;;;;;;5071590;28;20222;-60
2023/03/19 08:29:39;;;;;;;4.55;1.63;;;24.80;49.40;;;;;;5072003;28;20647;-61
2023/03/19 08:32:10;;;;;;;5.20;2.05;;;24.80;49.50;;;;;;5071856;28;20673;-62
2023/03/19 08:34:41;;;;;;;4.53;1.60;;;24.80;49.50;;;;;;5070266;28;20191;-61
2023/03/19 08:37:12;;;;;;;3.38;1.52;;;24.80;49.50;;;;;;5071649;28;20207;-62
2023/03/19 08:39:43;;;;;;;3.47;1.58;;;24.70;49.40;;;;;;5071639;28;20199;-61
2023/03/19 08:42:13;;;;;;;3.17;1.42;;;24.70;49.60;;;;;;5071084;28;20254;-61
2023/03/19 08:44:46;;;;;;;3.75;1.77;;;24.70;49.50;;;;;;5071631;28;20191;-62
2023/03/19 08:47:17;;;;;;;3.72;1.30;;;24.70;49.50;;;;;;5071618;28;20242;-61
2023/03/19 08:49:47;;;;;;;3.22;1.48;;;24.70;49.60;;;;;;5071887;28;20197;-62
2023/03/19 08:52:18;;;;;;;2.60;1.55;;;24.70;49.60;;;;;;5071922;28;20206;-61
2023/03/19 08:54:49;;;;;;;2.55;1.35;;;24.60;49.50;;;;;;5071081;28;20197;-61
2023/03/19 08:57:20;;;;;;;2.40;1.17;;;24.60;49.50;;;;;;5070758;28;20222;-61
2023/03/19 08:59:53;;;;;;;2.65;1.33;;;24.60;49.50;;;;;;5071551;28;20205;-61
2023/03/19 09:02:24;;;;;;;2.25;1.33;;;24.50;49.50;;;;;;5071623;28;20241;-61
2023/03/19 09:04:55;;;;;;;2.83;1.40;;;24.50;49.50;;;;;;5071361;28;20203;-60
2023/03/19 09:07:25;;;;;;;2.05;1.08;;;24.50;49.50;;;;;;5071422;28;20214;-62
2023/03/19 09:09:56;;;;;;;3.30;1.20;;;24.50;49.50;;;;;;5071651;28;20191;-62
2023/03/19 09:12:27;;;;;;;2.92;1.42;;;24.50;49.50;;;;;;5071377;28;20207;-61
2023/03/19 09:14:59;;;;;;;2.72;1.50;;;24.50;49.60;;;;;;5070830;28;20202;-61
2023/03/19 09:17:30;;;;;;;3.22;1.33;;;24.40;49.60;;;;;;5070534;28;20222;-61
2023/03/19 09:20:00;;;;;;;3.78;1.20;;;24.40;49.60;;;;;;5070777;28;20199;-58
2023/03/19 09:22:31;;;;;;;1.77;1.45;;;24.40;49.60;;;;;;5070513;28;20230;-62
2023/03/19 09:25:02;;;;;;;2.05;1.25;;;24.40;49.60;;;;;;5070377;28;20655;-61
2023/03/19 09:27:32;;;;;;;2.38;1.30;;;24.40;49.50;;;;;;5069695;28;20718;-62
2023/03/19 09:30:08;;;;;;;2.30;1.52;;;24.40;49.60;;;;;;5070294;28;20586;-61
2023/03/19 09:32:39;;;;;;;4.75;1.30;;;24.30;49.50;;;;;;5070349;28;20201;-62
2023/03/19 09:35:11;;;;;;;2.63;1.27;;;24.30;49.50;;;;;;5070280;28;20240;-61
2023/03/19 09:37:41;;;;;;;3.47;1.13;;;24.30;49.50;;;;;;5070062;28;20211;-61
2023/03/19 09:40:22;;;;;;;2.05;1.20;;;24.30;49.50;;;;;;5070261;28;20195;-62
2023/03/19 09:43:05;;;;;;;2.08;1.20;;;24.20;49.40;;;;;;5070389;28;20585;-62
2023/03/19 09:45:37;;;;;;;2.70;1.20;;;24.20;49.50;;;;;;5071415;28;20190;-62
2023/03/19 09:48:13;;;;;;;3.50;1.35;;;24.20;49.50;;;;;;5071008;28;20658;-62
2023/03/19 09:50:44;;;;;;;2.33;1.13;;;24.20;49.50;;;;;;5070251;28;20198;-61
2023/03/19 09:53:22;;;;;;;3.05;1.10;;;24.20;49.50;;;;;;5070029;28;20195;-61
2023/03/19 09:55:54;;;;;;;2.65;1.17;;;24.10;49.40;;;;;;5070680;28;20211;-61
2023/03/19 09:58:29;;;;;;;2.60;1.52;;;24.10;49.50;;;;;;5070915;28;20195;-61
2023/03/19 10:01:04;;;;;;;2.45;1.30;;;24.10;49.50;;;;;;5070624;28;20190;-62
2023/03/19 10:03:48;;;;;;;1.70;1.00;;;24.00;49.40;;;;;;5070621;28;20730;-63
2023/03/19 10:06:28;;;;;;;1.48;0.90;;;24.00;49.40;;;;;;5070917;28;20206;-61
2023/03/19 10:09:17;;;;;;;2.85;1.50;;;24.00;49.50;;;;;;5069800;28;20193;-62
2023/03/19 10:11:58;;;;;;;1.85;1.08;;;24.00;49.50;;;;;;5050850;28;20273;-62
2023/03/19 10:15:03;;;;;;;1.67;0.90;;;24.00;49.40;;;;;;5060356;28;20195;-62
2023/03/19 10:17:41;;;;;;;1.85;1.05;;;23.90;49.40;;;;;;5069932;28;20218;-61
2023/03/19 10:20:18;;;;;;;1.92;1.30;;;23.90;49.40;;;;;;5070154;28;20190;-61
2023/03/19 10:22:53;;;;;;;1.80;0.95;;;23.90;49.40;;;;;;5069807;28;20221;-61
2023/03/19 10:25:27;;;;;;;2.20;1.10;;;23.80;49.40;;;;;;5070146;28;20190;-61
2023/03/19 10:28:02;;;;;;;2.58;1.02;;;23.80;49.40;;;;;;5070954;28;20201;-61
2023/03/19 10:30:36;;;;;;;1.92;1.05;;;23.80;49.50;;;;;;5074492;28;20201;-61
2023/03/19 10:33:19;;;;;;;1.70;1.10;;;23.80;49.50;;;;;;5074164;28;20573;-62
2023/03/19 10:35:56;;;;;;;2.92;1.13;;;23.70;49.40;;;;;;5073821;28;20240;-61
2023/03/19 10:38:28;;;;;;;1.83;1.40;;;23.70;49.40;;;;;;5074076;28;20198;-60
2023/03/19 10:41:16;;;;;;;2.15;1.10;;;23.70;49.40;;;;;;5074059;28;20217;-62
2023/03/19 10:43:52;;;;;;;1.40;0.98;;;23.70;49.50;;;;;;5073423;28;20601;-61
2023/03/19 10:46:23;;;;;;;2.25;1.08;;;23.70;49.50;;;;;;5073270;28;20210;-60
2023/03/19 10:48:55;;;;;;;1.83;1.10;;;23.70;49.50;;;;;;5073379;28;20206;-61
2023/03/19 10:51:28;;;;;;;1.75;0.95;;;23.60;49.50;;;;;;5074142;28;20206;-62
2023/03/19 10:54:01;;;;;;;1.48;1.00;;;23.60;49.50;;;;;;5074340;28;20199;-61
2023/03/19 10:56:36;;;;;;;1.60;0.98;;;23.60;49.50;;;;;;5073630;28;20218;-61
2023/03/19 10:59:08;;;;;;;1.65;1.00;;;23.50;49.50;;;;;;5073184;28;20201;-61
2023/03/19 11:01:40;;;;;;;2.28;1.00;;;23.50;49.50;;;;;;5073316;28;20191;-61
2023/03/19 11:04:19;;;;;;;1.52;0.88;;;23.50;49.50;;;;;;5072956;28;20709;-62
2023/03/19 11:06:53;;;;;;;2.72;1.10;;;23.50;49.60;;;;;;5073406;28;20242;-61
2023/03/19 11:09:30;;;;;;;2.72;1.27;;;23.40;49.50;;;;;;5073279;28;20195;-62
2023/03/19 11:12:07;;;;;;;1.90;1.00;;;23.40;49.60;;;;;;5069970;28;20194;-61
2023/03/19 11:14:40;;;;;;;3.05;1.05;;;23.40;49.60;;;;;;5073334;28;20194;-61
2023/03/19 11:17:22;;;;;;;1.38;1.00;;;23.40;49.60;;;;;;5073545;28;20211;-61
2023/03/19 11:19:57;;;;;;;1.38;0.90;;;23.40;49.60;;;;;;5073701;28;20203;-62
2023/03/19 11:22:30;;;;;;;2.00;0.98;;;23.40;49.60;;;;;;5073403;28;20201;-61
2023/03/19 11:25:05;;;;;;;0.80;0.68;;;23.40;49.60;;;;;;5072975;28;20632;-61
2023/03/19 11:27:37;;;;;;;1.40;0.98;;;23.30;49.60;;;;;;5073143;28;20310;-62
2023/03/19 11:30:15;;;;;;;2.88;1.20;;;23.30;49.60;;;;;;5073612;28;20195;-61
2023/03/19 11:33:13;;;;;;;1.98;1.10;;;23.30;49.60;;;;;;5073407;28;20650;-62
2023/03/19 11:35:52;;;;;;;3.72;1.48;;;23.30;49.60;;;;;;5073173;28;20195;-62
2023/03/19 11:38:32;;;;;;;2.67;1.10;;;23.20;49.50;;;;;;5073227;28;20198;-62
2023/03/19 11:41:12;;;;;;;1.33;0.90;;;23.20;49.60;;;;;;5073395;28;20202;-61
2023/03/19 11:43:58;;;;;;;1.55;0.90;;;23.10;49.50;;;;;;5071779;28;20233;-60
2023/03/19 11:46:43;;;;;;;0.88;0.70;;;23.10;49.70;;;;;;5070643;28;20207;-61
2023/03/19 11:49:29;;;;;;;1.75;1.20;;;23.10;49.60;;;;;;5069329;28;20548;-61
2023/03/19 11:52:13;;;;;;;2.28;1.15;;;23.10;49.60;;;;;;5070608;28;20187;-62
2023/03/19 11:54:57;;;;;;;1.67;0.90;;;23.10;49.70;;;;;;5071049;28;20194;-62
2023/03/19 11:57:45;;;;;;;1.27;1.10;;;23.00;49.60;;;;;;5071286;28;20211;-62
2023/03/19 12:00:30;;;;;;;1.38;1.02;;;23.00;49.60;;;;;;5068998;28;20194;-61
2023/03/19 12:03:43;;;;;;;2.13;1.00;;;23.00;49.60;;;;;;5069845;28;20191;-61
2023/03/19 12:06:26;;;;;;;1.10;0.90;;;23.00;49.60;;;;;;5046862;28;20219;-61
2023/03/19 12:09:04;;;;;;;1.42;0.88;;;23.00;49.60;;;;;;5069348;28;20194;-62
2023/03/19 12:11:44;;;;;;;1.10;0.80;;;22.90;49.60;;;;;;5068956;28;20293;-61
2023/03/19 12:14:35;;;;;;;1.67;1.05;;;22.90;49.60;;;;;;5069512;28;20191;-61
2023/03/19 12:17:23;;;;;;;1.73;1.00;;;22.90;49.70;;;;;;5072754;28;20214;-61
2023/03/19 12:20:11;;;;;;;2.05;0.88;;;22.90;49.70;;;;;;5072353;28;20210;-61
2023/03/19 12:22:56;;;;;;;1.60;1.00;;;22.80;49.70;;;;;;5072226;28;20194;-61
2023/03/19 12:25:49;;;;;;;1.52;0.90;;;22.80;49.70;;;;;;5071219;28;20199;-61
2023/03/19 12:28:24;;;;;;;1.77;0.70;;;22.80;49.70;;;;;;5055300;28;20186;-61
2023/03/19 12:31:07;;;;;;;1.33;0.98;;;22.80;49.70;;;;;;5071428;28;20209;-61
2023/03/19 12:33:47;;;;;;;1.38;0.70;;;22.80;49.70;;;;;;5072355;28;20198;-61
2023/03/19 12:36:22;;;;;;;3.00;1.10;;;22.70;49.70;;;;;;5072364;28;20574;-61
2023/03/19 12:38:56;;;;;;;1.30;1.00;;;22.70;49.70;;;;;;5072411;28;20198;-61
2023/03/19 12:41:31;;;;;;;1.60;0.70;;;22.70;49.70;;;;;;5072205;28;20210;-60
2023/03/19 12:44:06;;;;;;;1.15;0.80;;;22.70;49.70;;;;;;5071924;28;20214;-61
2023/03/19 12:46:42;;;;;;;1.30;0.88;;;22.70;49.70;;;;;;5071610;28;20705;-61
2023/03/19 12:49:20;;;;;;;1.05;0.85;;;22.60;49.70;;;;;;5071709;28;20256;-62
2023/03/19 12:51:54;;;;;;;1.35;0.93;;;22.60;49.70;;;;;;5071626;28;20198;-59
2023/03/19 12:54:28;;;;;;;1.45;0.82;;;22.60;49.70;;;;;;5072552;28;20716;-60
2023/03/19 12:57:05;;;;;;;1.55;1.00;;;22.60;49.70;;;;;;5071749;28;20230;-60
2023/03/19 12:59:42;;;;;;;1.17;0.70;;;22.50;49.70;;;;;;5071621;28;20194;-57
2023/03/19 13:02:20;;;;;;;0.80;0.80;;;22.50;49.70;;;;;;5071662;28;20682;-61
2023/03/19 13:04:56;;;;;;;1.55;0.77;;;22.50;49.70;;;;;;5071483;28;20242;-61
2023/03/19 13:07:33;;;;;;;1.33;0.80;;;22.50;49.70;;;;;;5070789;28;20214;-61
2023/03/19 13:10:08;;;;;;;1.58;0.73;;;22.50;49.80;;;;;;5071514;28;20911;-61
2023/03/19 13:12:41;;;;;;;0.65;0.57;;;22.50;49.80;;;;;;5071401;28;20723;-60
2023/03/19 13:15:15;;;;;;;0.80;0.80;;;22.50;49.70;;;;;;5071095;28;20562;-60
2023/03/19 13:17:56;;;;;;;0.80;0.70;;;22.40;49.70;;;;;;5070615;28;20214;-59
2023/03/19 13:20:39;;;;;;;1.17;0.77;;;22.40;49.80;;;;;;5071329;28;20281;-61